Carlin, Nevada
Current Conditions -  °F | °C
As of 8:56 PM on Saturday 25 Oct 2014 (Local Time) from KEKO Reporting Station
Broken Clouds Broken Clouds  
Wind Chill: 57°   Ceiling: 11000
Heat Index: 57°   Visibility: 10mi
Dew Point: 29°   Wind: 17mph
Humidity: 34%   Direction: 280°W
Pressure: 29.98"   Gusts: 26mph
Location:  40.71°N, 116.1°W
Report Text: KEKO 260356Z AUTO 28015G23KT 10SM BKN110 14/M02 A2998 RMK AO2 PK WND 28026/0346 SLP112 T01391017
Loading
Personal Weather Stations






























Interactive Weather Map
Tropical Storm Tracking
New forecast layout! Learn more

10-Day Weather Forecast

Advertisements
Track Severe Weather on mobile